Etusivu
METAR-TAF:

METAR-TAF

Lentoasemat :

New Castle, Pennsylvania, Yhdysvallat

Leveyspiiri: 41-01-31N, Pituuspiiri: 080-24-48W, korkeus merenpinnasta: 326 m

Tämänhetkinen sää

Tämä raportti tehtiin 1 tunti ja 2 minuuttia sitten, kello 05.56 UTC
tyyntä
Lämpötila 2°C
Kosteus 64%
Ilmanpaine 1017 hPa
Näkyvyys: 16.1 km
selkeää

METAR: KUCP 020556Z AUTO 00000KT 10SM CLR 02/M04 A3002 RMK AO2 SLP186 6//// T00221039 10067 20022 50002 PNO $

Aika: 02:58 (06:58 UTC)


TAF: puuttuu

Säähavainnot ja -ennusteet yli 4000 lentoasemalta (METAR- ja TAF-raportit).

Käytössä olevat sääasemat on merkitty karttaan keltaisilla ja punaisilla pisteillä.

Aseta hiiri pisteen päälle nähdäksesi sääaseman nimen.

Klikkaa sitten nähdäksesi säähavainnot ja -ennusteet.

Kartan vaihtaminen: klikkaa mustalla rastilla varustettuja vihreitä pisteitä, niin voit zoomata sisään; viivalla varustettua vihreää pistettä, niin voit zoomata ulos tai vihreitä nuolia, niin pääset viereisille kartoille.


METAR-TAF: